sensor_id;sensor_type;location;lat;lon;timestamp;temperature;humidity
30467;DHT22;17258;52.560;13.046;2022-10-16T00:01:39;19.60;63.90
30467;DHT22;17258;52.560;13.046;2022-10-16T00:11:40;19.60;64.00
30467;DHT22;17258;52.560;13.046;2022-10-16T00:21:41;19.70;64.80
30467;DHT22;17258;52.560;13.046;2022-10-16T00:31:42;19.80;64.10
30467;DHT22;17258;52.560;13.046;2022-10-16T00:41:43;19.90;64.10
30467;DHT22;17258;52.560;13.046;2022-10-16T00:51:47;19.90;64.00
30467;DHT22;17258;52.560;13.046;2022-10-16T01:01:49;19.90;63.90
30467;DHT22;17258;52.560;13.046;2022-10-16T01:12:01;19.90;64.00
30467;DHT22;17258;52.560;13.046;2022-10-16T01:22:08;19.90;64.30
30467;DHT22;17258;52.560;13.046;2022-10-16T01:32:28;20.00;64.10
30467;DHT22;17258;52.560;13.046;2022-10-16T01:42:36;19.90;64.10
30467;DHT22;17258;52.560;13.046;2022-10-16T01:52:43;19.90;64.00
30467;DHT22;17258;52.560;13.046;2022-10-16T02:02:48;19.90;64.10
30467;DHT22;17258;52.560;13.046;2022-10-16T02:13:04;19.90;64.30
30467;DHT22;17258;52.560;13.046;2022-10-16T02:23:43;19.90;64.50
30467;DHT22;17258;52.560;13.046;2022-10-16T02:33:51;19.90;64.80
30467;DHT22;17258;52.560;13.046;2022-10-16T02:43:51;20.00;64.40
30467;DHT22;17258;52.560;13.046;2022-10-16T02:53:52;20.00;64.20
30467;DHT22;17258;52.560;13.046;2022-10-16T03:03:53;20.00;64.10
30467;DHT22;17258;52.560;13.046;2022-10-16T03:13:54;19.90;64.00
30467;DHT22;17258;52.560;13.046;2022-10-16T03:23:54;19.90;63.90
30467;DHT22;17258;52.560;13.046;2022-10-16T03:33:55;19.80;63.90
30467;DHT22;17258;52.560;13.046;2022-10-16T03:43:56;19.70;63.80
30467;DHT22;17258;52.560;13.046;2022-10-16T03:53:59;19.60;63.80
30467;DHT22;17258;52.560;13.046;2022-10-16T04:04:00;19.50;63.80
30467;DHT22;17258;52.560;13.046;2022-10-16T04:14:00;19.50;63.90
30467;DHT22;17258;52.560;13.046;2022-10-16T04:24:01;19.40;64.00
30467;DHT22;17258;52.560;13.046;2022-10-16T04:34:02;19.30;64.00
30467;DHT22;17258;52.560;13.046;2022-10-16T04:44:02;19.30;64.00
30467;DHT22;17258;52.560;13.046;2022-10-16T04:54:03;19.20;64.00
30467;DHT22;17258;52.560;13.046;2022-10-16T05:04:04;19.10;64.00
30467;DHT22;17258;52.560;13.046;2022-10-16T05:14:04;19.00;63.90
30467;DHT22;17258;52.560;13.046;2022-10-16T05:24:05;19.00;64.00
30467;DHT22;17258;52.560;13.046;2022-10-16T05:34:06;18.90;64.00
30467;DHT22;17258;52.560;13.046;2022-10-16T05:44:06;18.80;64.00
30467;DHT22;17258;52.560;13.046;2022-10-16T05:54:08;18.70;64.10
30467;DHT22;17258;52.560;13.046;2022-10-16T06:04:09;18.60;64.20
30467;DHT22;17258;52.560;13.046;2022-10-16T06:14:10;18.60;64.50
30467;DHT22;17258;52.560;13.046;2022-10-16T06:24:10;18.60;64.70
30467;DHT22;17258;52.560;13.046;2022-10-16T06:34:11;18.60;64.80
30467;DHT22;17258;52.560;13.046;2022-10-16T06:44:12;18.70;65.10
30467;DHT22;17258;52.560;13.046;2022-10-16T06:54:14;18.80;65.50
30467;DHT22;17258;52.560;13.046;2022-10-16T07:04:15;18.90;65.70
30467;DHT22;17258;52.560;13.046;2022-10-16T07:14:18;19.10;66.10
30467;DHT22;17258;52.560;13.046;2022-10-16T07:24:20;19.40;66.40
30467;DHT22;17258;52.560;13.046;2022-10-16T07:34:21;19.60;66.40
30467;DHT22;17258;52.560;13.046;2022-10-16T07:44:22;19.90;66.40
30467;DHT22;17258;52.560;13.046;2022-10-16T07:54:22;20.10;66.40
30467;DHT22;17258;52.560;13.046;2022-10-16T08:04:23;20.30;66.20
30467;DHT22;17258;52.560;13.046;2022-10-16T08:14:24;20.50;66.00
30467;DHT22;17258;52.560;13.046;2022-10-16T08:24:24;20.70;66.00
30467;DHT22;17258;52.560;13.046;2022-10-16T08:34:26;20.80;65.90
30467;DHT22;17258;52.560;13.046;2022-10-16T08:54:53;21.10;66.00
30467;DHT22;17258;52.560;13.046;2022-10-16T09:25:36;21.70;66.40
30467;DHT22;17258;52.560;13.046;2022-10-16T09:35:42;21.80;65.90
30467;DHT22;17258;52.560;13.046;2022-10-16T09:45:54;22.00;65.70
30467;DHT22;17258;52.560;13.046;2022-10-16T09:55:56;22.00;66.00
30467;DHT22;17258;52.560;13.046;2022-10-16T10:05:56;22.20;65.90
30467;DHT22;17258;52.560;13.046;2022-10-16T10:15:57;22.40;65.80
30467;DHT22;17258;52.560;13.046;2022-10-16T10:26:18;22.60;65.50
30467;DHT22;17258;52.560;13.046;2022-10-16T10:36:38;22.80;65.30
30467;DHT22;17258;52.560;13.046;2022-10-16T10:46:56;23.00;65.20
30467;DHT22;17258;52.560;13.046;2022-10-16T11:07:15;23.40;64.50
30467;DHT22;17258;52.560;13.046;2022-10-16T11:17:28;23.60;63.90
30467;DHT22;17258;52.560;13.046;2022-10-16T11:27:43;23.80;63.50
30467;DHT22;17258;52.560;13.046;2022-10-16T11:37:49;23.80;62.90
30467;DHT22;17258;52.560;13.046;2022-10-16T11:47:57;23.80;62.80
30467;DHT22;17258;52.560;13.046;2022-10-16T11:58:05;23.90;62.20
30467;DHT22;17258;52.560;13.046;2022-10-16T12:08:12;23.90;62.10
30467;DHT22;17258;52.560;13.046;2022-10-16T12:18:24;24.00;61.60
30467;DHT22;17258;52.560;13.046;2022-10-16T12:28:29;24.10;59.90
30467;DHT22;17258;52.560;13.046;2022-10-16T12:38:44;24.10;60.00
30467;DHT22;17258;52.560;13.046;2022-10-16T12:48:46;24.10;60.00
30467;DHT22;17258;52.560;13.046;2022-10-16T12:59:11;24.10;59.70
30467;DHT22;17258;52.560;13.046;2022-10-16T13:09:44;24.20;58.00
30467;DHT22;17258;52.560;13.046;2022-10-16T13:30:23;24.20;59.10
30467;DHT22;17258;52.560;13.046;2022-10-16T13:40:25;24.20;57.30
30467;DHT22;17258;52.560;13.046;2022-10-16T13:50:25;24.30;58.40
30467;DHT22;17258;52.560;13.046;2022-10-16T14:00:27;24.40;58.00
30467;DHT22;17258;52.560;13.046;2022-10-16T14:10:32;24.40;58.00
30467;DHT22;17258;52.560;13.046;2022-10-16T14:20:34;24.50;57.60
30467;DHT22;17258;52.560;13.046;2022-10-16T14:30:35;24.40;57.90
30467;DHT22;17258;52.560;13.046;2022-10-16T14:40:37;24.40;57.20
30467;DHT22;17258;52.560;13.046;2022-10-16T14:50:38;24.30;57.10
30467;DHT22;17258;52.560;13.046;2022-10-16T15:00:38;24.20;57.10
30467;DHT22;17258;52.560;13.046;2022-10-16T15:10:41;24.10;57.10
30467;DHT22;17258;52.560;13.046;2022-10-16T15:20:43;24.00;56.70
30467;DHT22;17258;52.560;13.046;2022-10-16T15:30:45;23.90;56.90
30467;DHT22;17258;52.560;13.046;2022-10-16T15:40:47;23.80;56.80
30467;DHT22;17258;52.560;13.046;2022-10-16T15:50:48;23.60;56.60
30467;DHT22;17258;52.560;13.046;2022-10-16T16:00:56;23.40;56.50
30467;DHT22;17258;52.560;13.046;2022-10-16T16:11:05;23.30;56.20
30467;DHT22;17258;52.560;13.046;2022-10-16T16:21:07;23.00;56.30
30467;DHT22;17258;52.560;13.046;2022-10-16T16:31:08;22.80;56.40
30467;DHT22;17258;52.560;13.046;2022-10-16T16:41:22;22.50;56.60
30467;DHT22;17258;52.560;13.046;2022-10-16T16:51:25;22.20;56.50
30467;DHT22;17258;52.560;13.046;2022-10-16T17:01:26;21.90;56.70
30467;DHT22;17258;52.560;13.046;2022-10-16T17:11:28;21.50;56.70
30467;DHT22;17258;52.560;13.046;2022-10-16T17:21:29;21.20;56.80
30467;DHT22;17258;52.560;13.046;2022-10-16T17:31:33;20.80;57.00
30467;DHT22;17258;52.560;13.046;2022-10-16T17:41:35;20.40;57.10
30467;DHT22;17258;52.560;13.046;2022-10-16T17:51:36;20.10;57.30
30467;DHT22;17258;52.560;13.046;2022-10-16T18:01:38;19.80;57.50
30467;DHT22;17258;52.560;13.046;2022-10-16T18:11:40;19.50;57.60
30467;DHT22;17258;52.560;13.046;2022-10-16T18:21:41;19.20;57.80
30467;DHT22;17258;52.560;13.046;2022-10-16T18:31:42;18.90;57.90
30467;DHT22;17258;52.560;13.046;2022-10-16T18:41:43;18.70;58.10
30467;DHT22;17258;52.560;13.046;2022-10-16T18:51:46;18.50;58.20
30467;DHT22;17258;52.560;13.046;2022-10-16T19:01:48;18.30;58.30
30467;DHT22;17258;52.560;13.046;2022-10-16T19:11:49;18.10;58.50
30467;DHT22;17258;52.560;13.046;2022-10-16T19:21:50;17.90;58.60
30467;DHT22;17258;52.560;13.046;2022-10-16T19:31:58;17.80;58.80
30467;DHT22;17258;52.560;13.046;2022-10-16T19:42:01;17.70;58.90
30467;DHT22;17258;52.560;13.046;2022-10-16T19:52:02;17.60;59.00
30467;DHT22;17258;52.560;13.046;2022-10-16T20:02:02;17.50;59.20
30467;DHT22;17258;52.560;13.046;2022-10-16T20:12:03;17.40;59.30
30467;DHT22;17258;52.560;13.046;2022-10-16T20:22:04;17.30;59.40
30467;DHT22;17258;52.560;13.046;2022-10-16T20:32:05;17.30;59.40
30467;DHT22;17258;52.560;13.046;2022-10-16T20:42:06;17.30;59.60
30467;DHT22;17258;52.560;13.046;2022-10-16T20:52:07;17.20;59.70
30467;DHT22;17258;52.560;13.046;2022-10-16T21:02:09;17.20;59.80
30467;DHT22;17258;52.560;13.046;2022-10-16T21:12:11;17.20;59.90
30467;DHT22;17258;52.560;13.046;2022-10-16T21:22:11;17.20;60.00
30467;DHT22;17258;52.560;13.046;2022-10-16T21:32:12;17.20;60.00
30467;DHT22;17258;52.560;13.046;2022-10-16T21:42:13;17.20;60.00
30467;DHT22;17258;52.560;13.046;2022-10-16T21:52:14;17.20;60.10
30467;DHT22;17258;52.560;13.046;2022-10-16T22:02:15;17.20;60.10
30467;DHT22;17258;52.560;13.046;2022-10-16T22:12:15;17.20;60.10
30467;DHT22;17258;52.560;13.046;2022-10-16T22:22:18;17.10;60.00
30467;DHT22;17258;52.560;13.046;2022-10-16T22:32:19;17.10;60.10
30467;DHT22;17258;52.560;13.046;2022-10-16T22:42:20;17.00;60.10
30467;DHT22;17258;52.560;13.046;2022-10-16T22:52:20;17.00;60.20
30467;DHT22;17258;52.560;13.046;2022-10-16T23:02:21;16.90;60.20
30467;DHT22;17258;52.560;13.046;2022-10-16T23:12:22;16.90;60.40
30467;DHT22;17258;52.560;13.046;2022-10-16T23:22:25;16.90;60.60
30467;DHT22;17258;52.560;13.046;2022-10-16T23:32:26;16.90;60.70
30467;DHT22;17258;52.560;13.046;2022-10-16T23:42:27;17.00;60.90
30467;DHT22;17258;52.560;13.046;2022-10-16T23:52:27;17.10;61.10
